Glen Oaks, New York
Current Conditions -  °F | °C
As of 2:31 PM on Thursday 23 Oct 2014 (Local Time) from KJFK Reporting Station
Light Rain Light Rain  
Wind Chill: 11°   Ceiling: 3400
Heat Index: 11°   Visibility: 9mi
Dew Point:   Wind: 24mph
Humidity: 82%   Direction: 340°NNW
Pressure: 29.69"   Gusts: 29mph
Location:  40.75°N, 73.71°W
Report Text: KJFK 231831Z 34021G25KT 9SM -RA SCT017 BKN034 OVC046 11/08 A2969 RMK AO2 PK WND 35032/1820 RAE11B28 P0000
Loading
Personal Weather Stations






























Interactive Weather Map
Tropical Storm Tracking
New forecast layout! Learn more

10-Day Weather Forecast

Advertisements
Track Severe Weather on mobile